Gueydan, Louisiana
Current Conditions -  °F | °C
As of 3:35 AM on Saturday 20 Dec 2014 (Local Time) from K3R7 Reporting Station
Overcast Overcast  
Wind Chill: 43°   Ceiling: 700
Heat Index: 48°   Visibility: 10mi
Dew Point: 47°   Wind: 12mph
Humidity: 96%   Direction: 10°N
Pressure: 30.11"   Gusts: 20mph
Location:  30.03°N, 92.51°W
Report Text: K3R7 200935Z AUTO 01010G17KT 10SM OVC007 09/08 A3011 RMK AO2 T00870081
Loading
Personal Weather Stations






























Interactive Weather Map New forecast layout! Learn more

10-Day Weather Forecast

Advertisements
Track Severe Weather on mobile